createdAt,value
2023-01-15T00:02:21.451Z,6.80
2023-01-15T00:05:22.810Z,6.80
2023-01-15T00:08:23.751Z,6.70
2023-01-15T00:11:25.045Z,6.70
2023-01-15T00:14:26.125Z,6.60
2023-01-15T00:17:27.234Z,6.60
2023-01-15T00:20:28.603Z,6.60
2023-01-15T00:23:48.994Z,6.50
2023-01-15T00:27:08.221Z,6.50
2023-01-15T00:30:13.936Z,6.50
2023-01-15T00:33:14.804Z,6.50
2023-01-15T00:36:15.465Z,6.50
2023-01-15T00:39:16.797Z,6.50
2023-01-15T00:42:18.257Z,6.40
2023-01-15T00:45:19.740Z,6.20
2023-01-15T00:48:20.930Z,6.20
2023-01-15T00:51:21.661Z,6.20
2023-01-15T00:54:22.800Z,6.20
2023-01-15T00:57:23.556Z,6.30
2023-01-15T01:00:24.893Z,6.80
2023-01-15T01:03:25.705Z,7.10
2023-01-15T01:06:27.053Z,7.20
2023-01-15T01:09:28.151Z,7.20
2023-01-15T01:12:29.875Z,7.50
2023-01-15T01:15:34.074Z,7.70
2023-01-15T01:18:35.256Z,8.10
2023-01-15T01:21:38.891Z,8.10
2023-01-15T01:24:39.815Z,8.10
2023-01-15T01:27:43.735Z,8.50
2023-01-15T01:30:44.401Z,8.90
2023-01-15T01:33:45.340Z,9.00
2023-01-15T01:36:46.981Z,9.00
2023-01-15T01:39:49.023Z,9.10
2023-01-15T01:42:50.108Z,9.20
2023-01-15T01:45:51.547Z,9.30
2023-01-15T01:49:00.240Z,9.30
2023-01-15T01:52:13.942Z,9.20
2023-01-15T01:55:20.340Z,9.20
2023-01-15T01:58:24.930Z,9.20
2023-01-15T02:01:26.791Z,9.10
2023-01-15T02:04:30.700Z,9.20
2023-01-15T02:07:33.610Z,9.00
2023-01-15T02:10:35.195Z,8.90
2023-01-15T02:13:42.008Z,8.90
2023-01-15T02:17:18.462Z,8.90
2023-01-15T02:21:00.628Z,8.60
2023-01-15T02:24:08.995Z,8.70
2023-01-15T02:27:23.252Z,8.70
2023-01-15T02:30:33.726Z,8.50
2023-01-15T02:33:51.824Z,8.40
2023-01-15T02:37:12.373Z,8.50
2023-01-15T02:40:18.562Z,8.50
2023-01-15T02:43:23.242Z,8.50
2023-01-15T02:46:32.020Z,8.40
2023-01-15T02:49:41.125Z,8.50
2023-01-15T02:52:50.292Z,8.50
2023-01-15T02:56:03.398Z,8.70
2023-01-15T02:59:18.333Z,8.70
2023-01-15T03:02:25.732Z,8.60
2023-01-15T03:05:42.280Z,8.50
2023-01-15T03:08:44.221Z,8.40
2023-01-15T03:11:55.890Z,8.40
2023-01-15T03:15:42.915Z,8.30
2023-01-15T03:18:56.336Z,8.10
2023-01-15T03:22:17.152Z,8.00
2023-01-15T03:25:36.474Z,7.90
2023-01-15T03:28:41.461Z,7.90
2023-01-15T03:31:44.958Z,8.00
2023-01-15T03:34:52.788Z,8.30
2023-01-15T03:37:55.580Z,8.60
2023-01-15T03:41:30.318Z,8.60
2023-01-15T03:44:48.022Z,8.70
2023-01-15T03:48:36.763Z,8.70
2023-01-15T03:52:08.682Z,8.40
2023-01-15T03:55:45.418Z,8.30
2023-01-15T03:59:20.016Z,8.20
2023-01-15T04:02:30.984Z,8.10
2023-01-15T04:05:35.080Z,8.10
2023-01-15T04:08:42.175Z,8.10
2023-01-15T04:11:43.375Z,8.10
2023-01-15T04:14:44.427Z,8.00
2023-01-15T04:17:50.466Z,7.90
2023-01-15T04:20:51.979Z,7.90
2023-01-15T04:23:53.125Z,7.90
2023-01-15T04:26:54.336Z,8.20
2023-01-15T04:29:55.448Z,8.40
2023-01-15T04:32:56.655Z,8.30
2023-01-15T04:36:01.658Z,8.20
2023-01-15T04:39:05.750Z,8.20
2023-01-15T04:42:25.105Z,8.10
2023-01-15T04:45:25.887Z,8.00
2023-01-15T04:48:27.313Z,7.80
2023-01-15T04:51:27.994Z,7.90
2023-01-15T04:54:29.643Z,7.80
2023-01-15T04:57:30.858Z,7.80
2023-01-15T05:00:32.106Z,7.60
2023-01-15T05:03:33.185Z,7.60
2023-01-15T05:06:34.440Z,7.60
2023-01-15T05:09:35.653Z,7.70
2023-01-15T05:12:36.738Z,7.70
2023-01-15T05:15:38.697Z,7.70
2023-01-15T05:18:39.644Z,7.70
2023-01-15T05:21:43.737Z,7.70
2023-01-15T05:24:44.638Z,7.70
2023-01-15T05:27:45.512Z,7.80
2023-01-15T05:30:46.278Z,8.10
2023-01-15T05:33:49.495Z,8.10
2023-01-15T05:36:53.139Z,8.00
2023-01-15T05:39:53.858Z,7.90
2023-01-15T05:42:54.708Z,7.90
2023-01-15T05:45:55.540Z,7.80
2023-01-15T05:49:05.867Z,7.80
2023-01-15T05:52:06.764Z,7.70
2023-01-15T05:55:08.559Z,7.60
2023-01-15T05:58:09.684Z,7.60
2023-01-15T06:01:12.077Z,7.50
2023-01-15T06:04:14.752Z,7.40
2023-01-15T06:07:17.581Z,7.40
2023-01-15T06:10:19.313Z,7.40
2023-01-15T06:13:20.431Z,7.30
2023-01-15T06:16:21.360Z,7.40
2023-01-15T06:19:22.581Z,7.30
2023-01-15T06:22:23.314Z,7.30
2023-01-15T06:25:23.942Z,7.30
2023-01-15T06:28:25.125Z,7.30
2023-01-15T06:31:29.504Z,7.30
2023-01-15T06:34:30.757Z,7.30
2023-01-15T06:37:31.690Z,7.30
2023-01-15T06:40:32.277Z,7.40
2023-01-15T06:43:51.758Z,7.40
2023-01-15T06:47:11.389Z,7.50
2023-01-15T06:50:12.844Z,7.50
2023-01-15T06:53:14.153Z,7.50
2023-01-15T06:56:15.595Z,7.50
2023-01-15T06:59:16.614Z,7.70
2023-01-15T07:02:18.521Z,7.80
2023-01-15T07:05:19.446Z,7.80
2023-01-15T07:08:20.215Z,7.70
2023-01-15T07:11:21.465Z,7.80
2023-01-15T07:14:25.463Z,7.80
2023-01-15T07:17:26.532Z,7.80
2023-01-15T07:20:27.332Z,7.80
2023-01-15T07:23:28.607Z,7.70
2023-01-15T07:26:29.437Z,7.90
2023-01-15T07:29:31.532Z,7.90
2023-01-15T07:32:32.485Z,8.00
2023-01-15T07:35:35.977Z,8.10
2023-01-15T07:38:37.430Z,8.20
2023-01-15T07:41:57.671Z,8.40
2023-01-15T07:45:17.458Z,8.40
2023-01-15T07:48:37.109Z,8.40
2023-01-15T07:51:37.732Z,8.40
2023-01-15T07:54:38.876Z,8.30
2023-01-15T07:57:42.131Z,8.30
2023-01-15T08:00:43.333Z,8.30
2023-01-15T08:03:44.233Z,8.30
2023-01-15T08:06:44.890Z,8.20
2023-01-15T08:09:45.687Z,8.20
2023-01-15T08:13:08.747Z,8.30
2023-01-15T08:16:11.438Z,8.30
2023-01-15T08:19:12.324Z,8.60
2023-01-15T08:22:13.181Z,8.70
2023-01-15T08:25:21.093Z,9.10
2023-01-15T08:28:24.760Z,9.50
2023-01-15T08:31:25.564Z,9.40
2023-01-15T08:34:26.710Z,9.30
2023-01-15T08:37:27.846Z,8.60
2023-01-15T08:40:29.162Z,8.30
2023-01-15T08:43:33.528Z,8.50
2023-01-15T08:46:34.749Z,8.70
2023-01-15T08:49:36.104Z,8.90
2023-01-15T08:52:41.227Z,9.00
2023-01-15T08:55:42.084Z,9.20
2023-01-15T08:58:43.795Z,9.30
2023-01-15T09:01:45.629Z,9.30
2023-01-15T09:04:46.974Z,9.10
2023-01-15T09:07:48.168Z,9.00
2023-01-15T09:10:48.875Z,8.60
2023-01-15T09:13:51.806Z,8.40
2023-01-15T09:16:52.635Z,8.30
2023-01-15T09:19:53.904Z,8.10
2023-01-15T09:22:55.232Z,8.00
2023-01-15T09:26:00.696Z,8.00
2023-01-15T09:29:02.620Z,7.90
2023-01-15T09:32:03.634Z,7.70
2023-01-15T09:35:05.249Z,7.70
2023-01-15T09:38:06.548Z,7.60
2023-01-15T09:41:34.683Z,7.50
2023-01-15T09:45:19.250Z,7.40
2023-01-15T09:49:04.378Z,7.40
2023-01-15T09:52:25.707Z,7.40
2023-01-15T09:55:37.160Z,7.30
2023-01-15T09:58:40.668Z,7.20
2023-01-15T10:01:43.591Z,7.10
2023-01-15T10:04:52.648Z,7.00
2023-01-15T10:08:14.949Z,6.80
2023-01-15T10:11:15.713Z,6.70
2023-01-15T10:14:39.208Z,6.50
2023-01-15T10:17:48.611Z,6.40
2023-01-15T10:21:27.316Z,6.20
2023-01-15T10:24:55.617Z,6.10
2023-01-15T10:28:13.608Z,6.00
2023-01-15T10:31:22.615Z,5.90
2023-01-15T10:35:04.346Z,5.80
2023-01-15T10:38:36.625Z,5.80
2023-01-15T10:42:17.021Z,5.70
2023-01-15T10:45:27.012Z,5.70
2023-01-15T10:48:57.090Z,5.60
2023-01-15T10:52:12.137Z,5.50
2023-01-15T10:55:38.917Z,5.40
2023-01-15T10:59:11.181Z,5.30
2023-01-15T11:02:38.142Z,5.10
2023-01-15T11:05:39.235Z,5.00
2023-01-15T11:12:28.468Z,4.80
2023-01-15T11:15:48.855Z,4.70
2023-01-15T11:19:08.609Z,4.50
2023-01-15T11:22:19.464Z,4.50
2023-01-15T11:25:30.046Z,4.40
2023-01-15T11:28:43.145Z,4.40
2023-01-15T11:31:44.432Z,4.30
2023-01-15T11:34:54.796Z,4.20
2023-01-15T11:38:30.257Z,4.20
2023-01-15T11:42:14.833Z,4.10
2023-01-15T11:45:40.699Z,4.00
2023-01-15T11:49:06.629Z,3.90
2023-01-15T11:52:24.322Z,3.80
2023-01-15T11:55:28.628Z,3.80
2023-01-15T11:58:39.505Z,3.70
2023-01-15T12:02:00.354Z,3.60
2023-01-15T12:05:05.437Z,3.60
2023-01-15T12:08:36.088Z,3.50
2023-01-15T12:11:49.751Z,3.50
2023-01-15T12:15:26.977Z,3.30
2023-01-15T12:18:43.436Z,3.40
2023-01-15T12:22:14.194Z,3.30
2023-01-15T12:25:54.114Z,3.20
2023-01-15T12:29:09.485Z,3.10
2023-01-15T12:32:18.580Z,3.00
2023-01-15T12:35:37.679Z,3.00
2023-01-15T12:38:46.498Z,3.00
2023-01-15T12:42:16.347Z,3.00
2023-01-15T12:45:27.260Z,2.90
2023-01-15T12:49:14.939Z,2.80
2023-01-15T12:52:27.078Z,2.80
2023-01-15T12:55:34.645Z,2.80
2023-01-15T12:58:50.732Z,2.70
2023-01-15T13:02:19.928Z,2.70
2023-01-15T13:05:30.911Z,2.70
2023-01-15T13:09:05.334Z,2.70
2023-01-15T13:12:15.049Z,2.70
2023-01-15T13:15:20.057Z,2.70
2023-01-15T13:18:48.170Z,2.70
2023-01-15T13:21:54.687Z,2.70
2023-01-15T13:25:07.254Z,2.70
2023-01-15T13:28:40.759Z,2.70
2023-01-15T13:32:17.556Z,2.80
2023-01-15T13:35:33.646Z,2.80
2023-01-15T13:38:43.617Z,2.80
2023-01-15T13:42:11.488Z,2.90
2023-01-15T13:45:48.663Z,2.90
2023-01-15T13:48:52.813Z,3.00
2023-01-15T13:51:53.952Z,3.10
2023-01-15T13:55:11.467Z,3.10
2023-01-15T13:58:26.024Z,3.10
2023-01-15T14:01:35.511Z,3.10
2023-01-15T14:04:39.079Z,3.10
2023-01-15T14:07:40.020Z,3.20
2023-01-15T14:10:41.097Z,3.20
2023-01-15T14:14:27.556Z,3.20
2023-01-15T14:18:10.433Z,3.30
2023-01-15T14:21:40.931Z,3.30
2023-01-15T14:25:35.257Z,3.30
2023-01-15T14:28:57.177Z,3.30
2023-01-15T14:32:30.631Z,3.30
2023-01-15T14:35:39.621Z,3.40
2023-01-15T14:38:55.420Z,3.40
2023-01-15T14:42:33.936Z,3.40
2023-01-15T14:45:46.799Z,3.40
2023-01-15T14:48:47.778Z,3.30
2023-01-15T14:51:51.184Z,3.40
2023-01-15T14:54:54.407Z,3.30
2023-01-15T14:58:05.584Z,3.30
2023-01-15T15:01:37.174Z,3.30
2023-01-15T15:04:49.270Z,3.40
2023-01-15T15:07:53.576Z,3.40
2023-01-15T15:10:58.328Z,3.40
2023-01-15T15:14:01.713Z,3.30
2023-01-15T15:17:16.322Z,3.30
2023-01-15T15:20:53.906Z,3.30
2023-01-15T15:24:12.357Z,3.30
2023-01-15T15:27:21.204Z,3.30
2023-01-15T15:30:22.196Z,3.30
2023-01-15T15:33:28.392Z,3.40
2023-01-15T15:36:33.669Z,4.20
2023-01-15T15:39:42.660Z,4.00
2023-01-15T15:43:31.310Z,5.60
2023-01-15T15:46:52.663Z,5.00
2023-01-15T15:49:56.180Z,5.30
2023-01-15T15:52:58.714Z,3.90
2023-01-15T15:56:01.327Z,3.50
2023-01-15T15:59:05.396Z,3.30
2023-01-15T16:02:21.633Z,3.20
2023-01-15T16:05:31.763Z,3.10
2023-01-15T16:08:36.074Z,3.10
2023-01-15T16:11:39.465Z,3.00
2023-01-15T16:14:41.852Z,2.80
2023-01-15T16:17:43.750Z,2.90
2023-01-15T16:20:45.284Z,2.80
2023-01-15T16:24:09.425Z,2.80
2023-01-15T16:27:17.480Z,2.80
2023-01-15T16:30:19.589Z,2.70
2023-01-15T16:33:21.045Z,2.70
2023-01-15T16:36:23.521Z,2.60
2023-01-15T16:39:29.334Z,2.60
2023-01-15T16:42:33.003Z,2.60
2023-01-15T16:45:37.955Z,2.50
2023-01-15T16:48:41.733Z,2.40
2023-01-15T16:51:43.272Z,2.40
2023-01-15T16:54:46.625Z,2.40
2023-01-15T16:57:47.906Z,2.40
2023-01-15T17:00:53.222Z,2.40
2023-01-15T17:03:54.749Z,2.30
2023-01-15T17:07:04.549Z,2.30
2023-01-15T17:10:25.008Z,2.20
2023-01-15T17:13:35.523Z,2.20
2023-01-15T17:16:36.522Z,2.10
2023-01-15T17:19:37.281Z,2.20
2023-01-15T17:22:41.108Z,2.20
2023-01-15T17:25:41.857Z,2.20
2023-01-15T17:28:42.522Z,2.20
2023-01-15T17:31:45.875Z,2.30
2023-01-15T17:34:46.785Z,2.30
2023-01-15T17:37:47.528Z,2.40
2023-01-15T17:40:48.600Z,2.40
2023-01-15T17:43:50.464Z,2.60
2023-01-15T17:46:51.240Z,2.60
2023-01-15T17:49:52.046Z,2.50
2023-01-15T17:52:52.878Z,2.50
2023-01-15T17:56:12.409Z,2.60
2023-01-15T17:59:31.782Z,2.70
2023-01-15T18:02:50.998Z,2.70
2023-01-15T18:05:52.715Z,2.60
2023-01-15T18:08:58.026Z,2.50
2023-01-15T18:11:58.853Z,2.50
2023-01-15T18:15:00.148Z,2.50
2023-01-15T18:18:00.939Z,2.50
2023-01-15T18:21:03.285Z,2.40
2023-01-15T18:24:04.687Z,2.40
2023-01-15T18:27:05.915Z,2.40
2023-01-15T18:30:07.799Z,2.40
2023-01-15T18:33:08.812Z,2.30
2023-01-15T18:36:13.059Z,2.30
2023-01-15T18:39:14.653Z,2.30
2023-01-15T18:42:15.552Z,2.20
2023-01-15T18:45:35.114Z,2.00
2023-01-15T18:48:36.306Z,1.90
2023-01-15T18:51:37.141Z,1.80
2023-01-15T18:54:38.191Z,1.70
2023-01-15T18:57:39.332Z,1.70
2023-01-15T19:00:40.143Z,1.80
2023-01-15T19:03:41.268Z,1.70
2023-01-15T19:06:42.436Z,1.60
2023-01-15T19:09:43.308Z,1.60
2023-01-15T19:12:45.396Z,1.60
2023-01-15T19:16:04.576Z,1.60
2023-01-15T19:19:05.653Z,1.60
2023-01-15T19:22:25.309Z,1.50
2023-01-15T19:25:43.582Z,1.60
2023-01-15T19:28:44.849Z,1.60
2023-01-15T19:31:45.945Z,1.60
2023-01-15T19:34:46.846Z,1.60
2023-01-15T19:37:48.053Z,1.70
2023-01-15T19:40:50.271Z,1.60
2023-01-15T19:44:09.879Z,1.70
2023-01-15T19:47:54.685Z,1.80
2023-01-15T19:50:55.524Z,1.80
2023-01-15T19:53:56.393Z,1.70
2023-01-15T19:56:57.593Z,1.80
2023-01-15T19:59:58.353Z,1.80
2023-01-15T20:02:59.400Z,1.80
2023-01-15T20:06:00.193Z,1.80
2023-01-15T20:09:00.989Z,1.90
2023-01-15T20:12:20.183Z,1.80
2023-01-15T20:15:22.119Z,1.80
2023-01-15T20:18:23.692Z,1.80
2023-01-15T20:21:25.077Z,1.80
2023-01-15T20:24:26.054Z,1.80
2023-01-15T20:27:26.925Z,1.70
2023-01-15T20:30:28.756Z,1.70
2023-01-15T20:33:30.096Z,1.80
2023-01-15T20:36:34.442Z,1.60
2023-01-15T20:39:35.281Z,1.70
2023-01-15T20:42:54.992Z,1.60
2023-01-15T20:46:07.446Z,1.60
2023-01-15T20:49:28.773Z,1.70
2023-01-15T20:52:29.755Z,1.60
2023-01-15T20:55:54.887Z,1.90
2023-01-15T20:58:58.514Z,1.80
2023-01-15T21:01:59.488Z,1.80
2023-01-15T21:05:00.942Z,1.80
2023-01-15T21:08:02.096Z,1.70
2023-01-15T21:11:03.257Z,1.60
2023-01-15T21:14:04.281Z,1.50
2023-01-15T21:17:05.239Z,1.40
2023-01-15T21:20:12.331Z,1.30
2023-01-15T21:23:13.177Z,1.10
2023-01-15T21:26:16.192Z,1.00
2023-01-15T21:29:17.044Z,1.00
2023-01-15T21:32:17.819Z,1.00
2023-01-15T21:35:18.880Z,1.20
2023-01-15T21:38:19.763Z,1.20
2023-01-15T21:41:45.295Z,1.30
2023-01-15T21:44:46.294Z,1.50
2023-01-15T21:47:47.085Z,1.50
2023-01-15T21:50:47.879Z,1.60
2023-01-15T21:53:48.715Z,1.60
2023-01-15T21:56:49.470Z,1.60
2023-01-15T21:59:50.537Z,1.60
2023-01-15T22:02:51.404Z,1.50
2023-01-15T22:05:52.540Z,1.50
2023-01-15T22:08:55.349Z,1.50
2023-01-15T22:11:56.412Z,1.50
2023-01-15T22:14:57.793Z,1.40
2023-01-15T22:17:59.610Z,1.30
2023-01-15T22:21:15.634Z,1.50
2023-01-15T22:24:19.315Z,1.40
2023-01-15T22:27:20.871Z,1.50
2023-01-15T22:30:22.099Z,1.50
2023-01-15T22:33:23.232Z,1.50
2023-01-15T22:36:26.809Z,1.40
2023-01-15T22:39:28.166Z,1.40
2023-01-15T22:42:31.201Z,1.40
2023-01-15T22:45:32.278Z,1.40
2023-01-15T22:48:33.137Z,1.40
2023-01-15T22:51:34.329Z,1.40
2023-01-15T22:54:35.093Z,1.10
2023-01-15T22:57:36.564Z,1.00
2023-01-15T23:00:37.572Z,1.30
2023-01-15T23:03:38.669Z,1.50
2023-01-15T23:06:39.517Z,1.60
2023-01-15T23:09:40.448Z,1.60
2023-01-15T23:12:42.895Z,1.70
2023-01-15T23:15:43.867Z,1.80
2023-01-15T23:18:45.327Z,1.90
2023-01-15T23:21:46.541Z,1.90
2023-01-15T23:24:47.989Z,1.80
2023-01-15T23:27:48.564Z,1.80
2023-01-15T23:30:49.304Z,1.70
2023-01-15T23:33:50.119Z,1.80
2023-01-15T23:36:51.272Z,1.70
2023-01-15T23:39:52.086Z,1.70
2023-01-15T23:43:11.454Z,1.70
2023-01-15T23:46:35.379Z,1.70
2023-01-15T23:49:36.803Z,1.80
2023-01-15T23:52:37.820Z,2.00
2023-01-15T23:55:38.708Z,2.00
2023-01-15T23:58:39.584Z,1.90
